sensor_id;sensor_type;location;lat;lon;timestamp;pressure;altitude;pressure_sealevel;temperature
64296;BMP280;51082;38.236;15.432;2023-04-03T00:00:23;99698.28;;;14.88
64296;BMP280;51082;38.236;15.432;2023-04-03T00:01:26;99688.59;;;14.89
64296;BMP280;51082;38.236;15.432;2023-04-03T00:02:28;99697.00;;;14.91
64296;BMP280;51082;38.236;15.432;2023-04-03T00:03:30;99696.19;;;14.90
64296;BMP280;51082;38.236;15.432;2023-04-03T00:04:32;99684.94;;;14.90
64296;BMP280;51082;38.236;15.432;2023-04-03T00:05:35;99685.72;;;14.90
64296;BMP280;51082;38.236;15.432;2023-04-03T00:06:38;99681.50;;;14.89
64296;BMP280;51082;38.236;15.432;2023-04-03T00:07:41;99686.19;;;14.87
64296;BMP280;51082;38.236;15.432;2023-04-03T00:08:43;99680.94;;;14.87
64296;BMP280;51082;38.236;15.432;2023-04-03T00:09:46;99675.69;;;14.87
64296;BMP280;51082;38.236;15.432;2023-04-03T00:10:47;99677.31;;;14.88
64296;BMP280;51082;38.236;15.432;2023-04-03T00:11:50;99672.06;;;14.88
64296;BMP280;51082;38.236;15.432;2023-04-03T00:12:52;99666.84;;;14.88
64296;BMP280;51082;38.236;15.432;2023-04-03T00:13:54;99671.81;;;14.90
64296;BMP280;51082;38.236;15.432;2023-04-03T00:14:56;99662.38;;;14.89
64296;BMP280;51082;38.236;15.432;2023-04-03T00:15:59;99658.19;;;14.88
64296;BMP280;51082;38.236;15.432;2023-04-03T00:17:00;99665.78;;;14.89
64296;BMP280;51082;38.236;15.432;2023-04-03T00:18:03;99645.88;;;14.88
64296;BMP280;51082;38.236;15.432;2023-04-03T00:19:05;99663.19;;;14.89
64296;BMP280;51082;38.236;15.432;2023-04-03T00:20:08;99657.16;;;14.89
64296;BMP280;51082;38.236;15.432;2023-04-03T00:21:12;99654.28;;;14.90
64296;BMP280;51082;38.236;15.432;2023-04-03T00:22:16;99649.03;;;14.90
64296;BMP280;51082;38.236;15.432;2023-04-03T00:23:18;99645.63;;;14.90
64296;BMP280;51082;38.236;15.432;2023-04-03T00:24:21;99641.19;;;14.90
64296;BMP280;51082;38.236;15.432;2023-04-03T00:25:23;99643.81;;;14.90
64296;BMP280;51082;38.236;15.432;2023-04-03T00:26:25;99641.19;;;14.90
64296;BMP280;51082;38.236;15.432;2023-04-03T00:27:28;99645.38;;;14.91
64296;BMP280;51082;38.236;15.432;2023-04-03T00:28:30;99628.09;;;14.90
64296;BMP280;51082;38.236;15.432;2023-04-03T00:29:32;99629.66;;;14.91
64296;BMP280;51082;38.236;15.432;2023-04-03T00:30:34;99625.47;;;14.90
64296;BMP280;51082;38.236;15.432;2023-04-03T00:31:36;99626.50;;;14.89
64296;BMP280;51082;38.236;15.432;2023-04-03T00:32:38;99626.50;;;14.89
64296;BMP280;51082;38.236;15.432;2023-04-03T00:33:41;99622.28;;;14.88
64296;BMP280;51082;38.236;15.432;2023-04-03T00:34:43;99621.25;;;14.89
64296;BMP280;51082;38.236;15.432;2023-04-03T00:35:45;99616.03;;;14.89
64296;BMP280;51082;38.236;15.432;2023-04-03T00:36:47;99618.59;;;14.84
64296;BMP280;51082;38.236;15.432;2023-04-03T00:37:53;99624.78;;;14.78
64296;BMP280;51082;38.236;15.432;2023-04-03T00:38:55;99619.78;;;14.77
64296;BMP280;51082;38.236;15.432;2023-04-03T00:39:58;99623.44;;;14.76
64296;BMP280;51082;38.236;15.432;2023-04-03T00:40:59;99614.50;;;14.72
64296;BMP280;51082;38.236;15.432;2023-04-03T00:42:02;99614.66;;;14.65
64296;BMP280;51082;38.236;15.432;2023-04-03T00:43:12;99613.88;;;14.64
64296;BMP280;51082;38.236;15.432;2023-04-03T00:44:23;99605.78;;;14.66
64296;BMP280;51082;38.236;15.432;2023-04-03T00:45:45;99606.28;;;14.63
64296;BMP280;51082;38.236;15.432;2023-04-03T00:46:49;99606.75;;;14.60
64296;BMP280;51082;38.236;15.432;2023-04-03T00:47:50;99607.53;;;14.60
64296;BMP280;51082;38.236;15.432;2023-04-03T00:48:53;99612.72;;;14.55
64296;BMP280;51082;38.236;15.432;2023-04-03T00:49:56;99609.06;;;14.56
64296;BMP280;51082;38.236;15.432;2023-04-03T00:50:59;99602.03;;;14.57
64296;BMP280;51082;38.236;15.432;2023-04-03T00:52:02;99600.91;;;14.53
64296;BMP280;51082;38.236;15.432;2023-04-03T00:53:06;99592.25;;;14.52
64296;BMP280;51082;38.236;15.432;2023-04-03T00:54:11;99590.97;;;14.55
64296;BMP280;51082;38.236;15.432;2023-04-03T00:55:13;99595.19;;;14.56
64296;BMP280;51082;38.236;15.432;2023-04-03T00:56:18;99591.56;;;14.57
64296;BMP280;51082;38.236;15.432;2023-04-03T00:57:21;99600.38;;;14.51
64296;BMP280;51082;38.236;15.432;2023-04-03T00:58:28;99585.75;;;14.55
64296;BMP280;51082;38.236;15.432;2023-04-03T00:59:37;99586.31;;;14.57
64296;BMP280;51082;38.236;15.432;2023-04-03T01:00:43;99590.72;;;14.56
64296;BMP280;51082;38.236;15.432;2023-04-03T01:01:48;99582.63;;;14.58
64296;BMP280;51082;38.236;15.432;2023-04-03T01:02:52;99583.59;;;14.52
64296;BMP280;51082;38.236;15.432;2023-04-03T01:03:53;99582.59;;;14.53
64296;BMP280;51082;38.236;15.432;2023-04-03T01:04:56;99582.75;;;14.46
64296;BMP280;51082;38.236;15.432;2023-04-03T01:05:58;99583.25;;;14.43
64296;BMP280;51082;38.236;15.432;2023-04-03T01:07:04;99571.41;;;14.41
64296;BMP280;51082;38.236;15.432;2023-04-03T01:08:08;99581.88;;;14.41
64296;BMP280;51082;38.236;15.432;2023-04-03T01:09:11;99574.38;;;14.27
64296;BMP280;51082;38.236;15.432;2023-04-03T01:10:15;99569.16;;;14.27
64296;BMP280;51082;38.236;15.432;2023-04-03T01:11:18;99562.28;;;14.21
64296;BMP280;51082;38.236;15.432;2023-04-03T01:12:24;99571.16;;;14.20
64296;BMP280;51082;38.236;15.432;2023-04-03T01:13:29;99561.50;;;14.21
64296;BMP280;51082;38.236;15.432;2023-04-03T01:14:31;99564.13;;;14.21
64296;BMP280;51082;38.236;15.432;2023-04-03T01:15:34;99560.19;;;14.23
64296;BMP280;51082;38.236;15.432;2023-04-03T01:16:36;99556.00;;;14.22
64296;BMP280;51082;38.236;15.432;2023-04-03T01:17:40;99566.41;;;14.17
64296;BMP280;51082;38.236;15.432;2023-04-03T01:18:43;99555.47;;;14.20
64296;BMP280;51082;38.236;15.432;2023-04-03T01:19:51;99561.50;;;14.21
64296;BMP280;51082;38.236;15.432;2023-04-03T01:21:24;99558.38;;;14.24
64296;BMP280;51082;38.236;15.432;2023-04-03T01:22:37;99555.47;;;14.20
64296;BMP280;51082;38.236;15.432;2023-04-03T01:25:21;99548.69;;;14.24
64296;BMP280;51082;38.236;15.432;2023-04-03T01:26:23;99550.31;;;14.25
64296;BMP280;51082;38.236;15.432;2023-04-03T01:27:26;99544.03;;;14.26
64296;BMP280;51082;38.236;15.432;2023-04-03T01:28:30;99545.59;;;14.27
64296;BMP280;51082;38.236;15.432;2023-04-03T01:29:33;99550.06;;;14.27
64296;BMP280;51082;38.236;15.432;2023-04-03T01:30:37;99541.34;;;14.21
64296;BMP280;51082;38.236;15.432;2023-04-03T01:31:49;99544.25;;;14.25
64296;BMP280;51082;38.236;15.432;2023-04-03T01:32:51;99548.09;;;14.17
64296;BMP280;51082;38.236;15.432;2023-04-03T01:33:54;99536.84;;;14.17
64296;BMP280;51082;38.236;15.432;2023-04-03T01:34:56;99541.44;;;14.09
64296;BMP280;51082;38.236;15.432;2023-04-03T01:35:59;99535.97;;;14.11
64296;BMP280;51082;38.236;15.432;2023-04-03T01:37:01;99526.59;;;14.15
64296;BMP280;51082;38.236;15.432;2023-04-03T01:38:03;99527.16;;;14.17
64296;BMP280;51082;38.236;15.432;2023-04-03T01:39:05;99528.19;;;14.16
64296;BMP280;51082;38.236;15.432;2023-04-03T01:40:09;99531.38;;;14.18
64296;BMP280;51082;38.236;15.432;2023-04-03T01:41:10;99521.34;;;14.15
64296;BMP280;51082;38.236;15.432;2023-04-03T01:42:13;99522.13;;;14.16
64296;BMP280;51082;38.236;15.432;2023-04-03T01:43:15;99525.22;;;14.07
64296;BMP280;51082;38.236;15.432;2023-04-03T01:44:17;99528.00;;;14.01
64296;BMP280;51082;38.236;15.432;2023-04-03T01:45:19;99521.63;;;13.97
64296;BMP280;51082;38.236;15.432;2023-04-03T01:46:22;99516.97;;;13.99
64296;BMP280;51082;38.236;15.432;2023-04-03T01:47:25;99517.13;;;13.92
64296;BMP280;51082;38.236;15.432;2023-04-03T01:48:28;99514.75;;;13.91
64296;BMP280;51082;38.236;15.432;2023-04-03T01:49:29;99508.50;;;13.92
64296;BMP280;51082;38.236;15.432;2023-04-03T01:50:32;99505.88;;;13.92
64296;BMP280;51082;38.236;15.432;2023-04-03T01:51:34;99506.91;;;13.91
64296;BMP280;51082;38.236;15.432;2023-04-03T01:52:37;99492.56;;;13.93
64296;BMP280;51082;38.236;15.432;2023-04-03T01:53:38;99495.75;;;13.95
64296;BMP280;51082;38.236;15.432;2023-04-03T01:54:41;99493.66;;;13.97
64296;BMP280;51082;38.236;15.432;2023-04-03T01:55:43;99493.38;;;13.94
64296;BMP280;51082;38.236;15.432;2023-04-03T01:56:45;99491.31;;;13.96
64296;BMP280;51082;38.236;15.432;2023-04-03T01:57:47;99488.50;;;14.02
64296;BMP280;51082;38.236;15.432;2023-04-03T01:58:49;99496.91;;;14.04
64296;BMP280;51082;38.236;15.432;2023-04-03T01:59:51;99487.97;;;14.00
64296;BMP280;51082;38.236;15.432;2023-04-03T02:00:54;99487.63;;;13.97
64296;BMP280;51082;38.236;15.432;2023-04-03T02:01:55;99478.94;;;13.91
64296;BMP280;51082;38.236;15.432;2023-04-03T02:03:00;99484.66;;;13.88
64296;BMP280;51082;38.236;15.432;2023-04-03T02:04:01;99474.66;;;13.85
64296;BMP280;51082;38.236;15.432;2023-04-03T02:05:05;99466.03;;;13.85
64296;BMP280;51082;38.236;15.432;2023-04-03T02:06:06;99464.56;;;13.72
64296;BMP280;51082;38.236;15.432;2023-04-03T02:07:09;99461.88;;;13.67
64296;BMP280;51082;38.236;15.432;2023-04-03T02:08:11;99454.25;;;13.65
64296;BMP280;51082;38.236;15.432;2023-04-03T02:09:14;99446.50;;;13.70
64296;BMP280;51082;38.236;15.432;2023-04-03T02:10:18;99437.84;;;13.70
64296;BMP280;51082;38.236;15.432;2023-04-03T02:11:21;99440.66;;;13.63
64296;BMP280;51082;38.236;15.432;2023-04-03T02:12:23;99435.94;;;13.65
64296;BMP280;51082;38.236;15.432;2023-04-03T02:13:29;99430.25;;;13.68
64296;BMP280;51082;38.236;15.432;2023-04-03T02:14:30;99432.38;;;13.71
64296;BMP280;51082;38.236;15.432;2023-04-03T02:15:38;99433.84;;;13.62
64296;BMP280;51082;38.236;15.432;2023-04-03T02:16:44;99421.56;;;13.63
64296;BMP280;51082;38.236;15.432;2023-04-03T02:17:48;99419.75;;;13.63
64296;BMP280;51082;38.236;15.432;2023-04-03T02:18:57;99422.34;;;13.63
64296;BMP280;51082;38.236;15.432;2023-04-03T02:20:00;99416.41;;;13.68
64296;BMP280;51082;38.236;15.432;2023-04-03T02:21:04;99420.53;;;13.64
64296;BMP280;51082;38.236;15.432;2023-04-03T02:22:07;99417.59;;;13.60
64296;BMP280;51082;38.236;15.432;2023-04-03T02:23:09;99418.94;;;13.63
64296;BMP280;51082;38.236;15.432;2023-04-03T02:24:11;99405.63;;;13.64
64296;BMP280;51082;38.236;15.432;2023-04-03T02:25:13;99406.72;;;13.68
64296;BMP280;51082;38.236;15.432;2023-04-03T02:26:19;99403.72;;;13.60
64296;BMP280;51082;38.236;15.432;2023-04-03T02:27:23;99403.41;;;13.56
64296;BMP280;51082;38.236;15.432;2023-04-03T02:28:25;99408.03;;;13.49
64296;BMP280;51082;38.236;15.432;2023-04-03T02:29:27;99399.47;;;13.54
64296;BMP280;51082;38.236;15.432;2023-04-03T02:30:30;99395.03;;;13.54
64296;BMP280;51082;38.236;15.432;2023-04-03T02:31:31;99400.41;;;13.47
64296;BMP280;51082;38.236;15.432;2023-04-03T02:32:34;99395.50;;;13.51
64296;BMP280;51082;38.236;15.432;2023-04-03T02:33:37;99396.94;;;13.42
64296;BMP280;51082;38.236;15.432;2023-04-03T02:34:41;99396.81;;;13.32
64296;BMP280;51082;38.236;15.432;2023-04-03T02:35:45;99398.38;;;13.33
64296;BMP280;51082;38.236;15.432;2023-04-03T02:36:54;99407.72;;;13.29
64296;BMP280;51082;38.236;15.432;2023-04-03T02:37:55;99383.81;;;13.37
64296;BMP280;51082;38.236;15.432;2023-04-03T02:38:59;99382.50;;;13.39
64296;BMP280;51082;38.236;15.432;2023-04-03T02:40:00;99383.41;;;13.45
64296;BMP280;51082;38.236;15.432;2023-04-03T02:41:04;99383.47;;;13.50
64296;BMP280;51082;38.236;15.432;2023-04-03T02:42:06;99378.41;;;13.43
64296;BMP280;51082;38.236;15.432;2023-04-03T02:43:09;99377.69;;;13.48
64296;BMP280;51082;38.236;15.432;2023-04-03T02:44:11;99380.81;;;13.45
64296;BMP280;51082;38.236;15.432;2023-04-03T02:45:14;99378.25;;;13.33
64296;BMP280;51082;38.236;15.432;2023-04-03T02:46:16;99378.09;;;13.40
64296;BMP280;51082;38.236;15.432;2023-04-03T02:47:19;99371.31;;;13.39
64296;BMP280;51082;38.236;15.432;2023-04-03T02:48:20;99370.69;;;13.32
64296;BMP280;51082;38.236;15.432;2023-04-03T02:49:23;99370.59;;;13.27
64296;BMP280;51082;38.236;15.432;2023-04-03T02:50:27;99371.72;;;13.31
64296;BMP280;51082;38.236;15.432;2023-04-03T02:51:29;99364.84;;;13.46
64296;BMP280;51082;38.236;15.432;2023-04-03T02:52:31;99368.00;;;13.48
64296;BMP280;51082;38.236;15.432;2023-04-03T02:53:34;99373.47;;;13.47
64296;BMP280;51082;38.236;15.432;2023-04-03T02:54:36;99372.25;;;13.50
64296;BMP280;51082;38.236;15.432;2023-04-03T02:55:38;99375.47;;;13.57
64296;BMP280;51082;38.236;15.432;2023-04-03T02:56:40;99383.94;;;13.64
64296;BMP280;51082;38.236;15.432;2023-04-03T02:57:44;99384.72;;;13.64
64296;BMP280;51082;38.236;15.432;2023-04-03T02:58:45;99384.38;;;13.61
64296;BMP280;51082;38.236;15.432;2023-04-03T02:59:48;99382.56;;;13.61
64296;BMP280;51082;38.236;15.432;2023-04-03T03:00:50;99383.59;;;13.60
64296;BMP280;51082;38.236;15.432;2023-04-03T03:01:53;99391.69;;;13.59
64296;BMP280;51082;38.236;15.432;2023-04-03T03:02:56;99389.06;;;13.59
64296;BMP280;51082;38.236;15.432;2023-04-03T03:03:59;99377.13;;;13.63
64296;BMP280;51082;38.236;15.432;2023-04-03T03:05:01;99385.19;;;13.61
64296;BMP280;51082;38.236;15.432;2023-04-03T03:06:08;99378.31;;;13.55
64296;BMP280;51082;38.236;15.432;2023-04-03T03:07:10;99371.44;;;13.49
64296;BMP280;51082;38.236;15.432;2023-04-03T03:08:13;99366.38;;;13.42
64296;BMP280;51082;38.236;15.432;2023-04-03T03:09:14;99365.13;;;13.45
64296;BMP280;51082;38.236;15.432;2023-04-03T03:10:20;99355.13;;;13.42
64296;BMP280;51082;38.236;15.432;2023-04-03T03:11:25;99350.44;;;13.44
64296;BMP280;51082;38.236;15.432;2023-04-03T03:12:27;99354.09;;;13.43
64296;BMP280;51082;38.236;15.432;2023-04-03T03:13:34;99358.13;;;13.34
64296;BMP280;51082;38.236;15.432;2023-04-03T03:14:37;99356.91;;;13.36
64296;BMP280;51082;38.236;15.432;2023-04-03T03:15:38;99353.50;;;13.36
64296;BMP280;51082;38.236;15.432;2023-04-03T03:16:44;99357.06;;;13.30
64296;BMP280;51082;38.236;15.432;2023-04-03T03:17:50;99350.81;;;13.31
64296;BMP280;51082;38.236;15.432;2023-04-03T03:18:53;99350.81;;;13.31
64296;BMP280;51082;38.236;15.432;2023-04-03T03:19:57;99342.00;;;13.37
64296;BMP280;51082;38.236;15.432;2023-04-03T03:21:19;99342.00;;;13.37
64296;BMP280;51082;38.236;15.432;2023-04-03T03:22:26;99359.06;;;13.23
64296;BMP280;51082;38.236;15.432;2023-04-03T03:23:31;99361.41;;;13.07
64296;BMP280;51082;38.236;15.432;2023-04-03T03:24:34;99361.28;;;12.97
64296;BMP280;51082;38.236;15.432;2023-04-03T03:25:41;99349.88;;;12.70
64296;BMP280;51082;38.236;15.432;2023-04-03T03:26:46;99352.22;;;12.71
64296;BMP280;51082;38.236;15.432;2023-04-03T03:27:52;99339.41;;;12.70
64296;BMP280;51082;38.236;15.432;2023-04-03T03:28:58;99344.69;;;12.58
64296;BMP280;51082;38.236;15.432;2023-04-03T03:30:00;99338.06;;;12.50
64296;BMP280;51082;38.236;15.432;2023-04-03T03:31:04;99343.28;;;12.50
64296;BMP280;51082;38.236;15.432;2023-04-03T03:32:05;99332.84;;;12.50
64296;BMP280;51082;38.236;15.432;2023-04-03T03:33:08;99331.63;;;12.41
64296;BMP280;51082;38.236;15.432;2023-04-03T03:34:10;99323.34;;;12.44
64296;BMP280;51082;38.236;15.432;2023-04-03T03:35:14;99334.69;;;12.38
64296;BMP280;51082;38.236;15.432;2023-04-03T03:36:18;99326.88;;;12.38
64296;BMP280;51082;38.236;15.432;2023-04-03T03:37:20;99324.34;;;12.43
64296;BMP280;51082;38.236;15.432;2023-04-03T03:38:23;99325.22;;;12.49
64296;BMP280;51082;38.236;15.432;2023-04-03T03:39:26;99319.81;;;12.50
64296;BMP280;51082;38.236;15.432;2023-04-03T03:40:28;99316.06;;;12.46
64296;BMP280;51082;38.236;15.432;2023-04-03T03:41:30;99315.50;;;12.44
64296;BMP280;51082;38.236;15.432;2023-04-03T03:42:32;99308.00;;;12.48
64296;BMP280;51082;38.236;15.432;2023-04-03T03:43:35;99311.56;;;12.58
64296;BMP280;51082;38.236;15.432;2023-04-03T03:44:38;99307.03;;;12.54
64296;BMP280;51082;38.236;15.432;2023-04-03T03:45:40;99307.84;;;12.54
64296;BMP280;51082;38.236;15.432;2023-04-03T03:46:43;99304.00;;;12.45
64296;BMP280;51082;38.236;15.432;2023-04-03T03:47:46;99313.06;;;12.38
64296;BMP280;51082;38.236;15.432;2023-04-03T03:48:47;99313.81;;;12.38
64296;BMP280;51082;38.236;15.432;2023-04-03T03:49:50;99303.31;;;12.50
64296;BMP280;51082;38.236;15.432;2023-04-03T03:50:52;99300.19;;;12.65
64296;BMP280;51082;38.236;15.432;2023-04-03T03:51:56;99294.16;;;12.81
64296;BMP280;51082;38.236;15.432;2023-04-03T03:52:59;99299.50;;;12.86
64296;BMP280;51082;38.236;15.432;2023-04-03T03:54:00;99300.19;;;12.98
64296;BMP280;51082;38.236;15.432;2023-04-03T03:55:03;99303.34;;;13.00
64296;BMP280;51082;38.236;15.432;2023-04-03T03:56:05;99309.44;;;13.06
64296;BMP280;51082;38.236;15.432;2023-04-03T03:57:08;99313.47;;;13.13
64296;BMP280;51082;38.236;15.432;2023-04-03T03:58:10;99317.19;;;13.17
64296;BMP280;51082;38.236;15.432;2023-04-03T03:59:13;99319.06;;;13.22
64296;BMP280;51082;38.236;15.432;2023-04-03T04:00:15;99321.19;;;13.25
64296;BMP280;51082;38.236;15.432;2023-04-03T04:01:34;99322.53;;;13.28
64296;BMP280;51082;38.236;15.432;2023-04-03T04:02:37;99319.97;;;13.33
64296;BMP280;51082;38.236;15.432;2023-04-03T04:03:46;99320.53;;;13.35
64296;BMP280;51082;38.236;15.432;2023-04-03T04:05:08;99327.53;;;13.29
64296;BMP280;51082;38.236;15.432;2023-04-03T04:06:13;99323.66;;;13.32
64296;BMP280;51082;38.236;15.432;2023-04-03T04:07:19;99320.31;;;13.36
64296;BMP280;51082;38.236;15.432;2023-04-03T04:08:20;99326.63;;;13.40
64296;BMP280;51082;38.236;15.432;2023-04-03T04:09:24;99328.53;;;13.45
64296;BMP280;51082;38.236;15.432;2023-04-03T04:10:28;99328.53;;;13.45
64296;BMP280;51082;38.236;15.432;2023-04-03T04:11:31;99330.09;;;13.46
64296;BMP280;51082;38.236;15.432;2023-04-03T04:12:35;99326.44;;;13.47
64296;BMP280;51082;38.236;15.432;2023-04-03T04:13:36;99320.53;;;13.35
64296;BMP280;51082;38.236;15.432;2023-04-03T04:14:39;99318.44;;;13.32
64296;BMP280;51082;38.236;15.432;2023-04-03T04:15:41;99319.53;;;13.36
64296;BMP280;51082;38.236;15.432;2023-04-03T04:16:44;99317.47;;;13.38
64296;BMP280;51082;38.236;15.432;2023-04-03T04:17:46;99316.44;;;13.39
64296;BMP280;51082;38.236;15.432;2023-04-03T04:18:51;99320.91;;;13.43
64296;BMP280;51082;38.236;15.432;2023-04-03T04:19:53;99313.63;;;13.45
64296;BMP280;51082;38.236;15.432;2023-04-03T04:20:57;99324.88;;;13.46
64296;BMP280;51082;38.236;15.432;2023-04-03T04:22:01;99317.66;;;13.31
64296;BMP280;51082;38.236;15.432;2023-04-03T04:23:08;99315.53;;;13.11
64296;BMP280;51082;38.236;15.432;2023-04-03T04:24:10;99325.25;;;12.99
64296;BMP280;51082;38.236;15.432;2023-04-03T04:25:17;99307.47;;;12.96
64296;BMP280;51082;38.236;15.432;2023-04-03T04:26:18;99314.81;;;12.99
64296;BMP280;51082;38.236;15.432;2023-04-03T04:27:24;99312.69;;;12.96
64296;BMP280;51082;38.236;15.432;2023-04-03T04:28:25;99307.91;;;12.93
64296;BMP280;51082;38.236;15.432;2023-04-03T04:29:28;99297.25;;;12.95
64296;BMP280;51082;38.236;15.432;2023-04-03T04:30:30;99295.50;;;13.00
64296;BMP280;51082;38.236;15.432;2023-04-03T04:31:33;99299.00;;;13.06
64296;BMP280;51082;38.236;15.432;2023-04-03T04:32:37;99294.13;;;13.14
64296;BMP280;51082;38.236;15.432;2023-04-03T04:33:40;99302.72;;;13.10
64296;BMP280;51082;38.236;15.432;2023-04-03T04:34:42;99302.19;;;12.91
64296;BMP280;51082;38.236;15.432;2023-04-03T04:35:47;99312.22;;;12.82
64296;BMP280;51082;38.236;15.432;2023-04-03T04:36:48;99306.81;;;12.89
64296;BMP280;51082;38.236;15.432;2023-04-03T04:37:54;99295.25;;;13.02
64296;BMP280;51082;38.236;15.432;2023-04-03T04:39:00;99294.72;;;13.00
64296;BMP280;51082;38.236;15.432;2023-04-03T04:40:06;99294.88;;;12.93
64296;BMP280;51082;38.236;15.432;2023-04-03T04:41:09;99300.88;;;13.10
64296;BMP280;51082;38.236;15.432;2023-04-03T04:42:12;99307.00;;;13.21
64296;BMP280;51082;38.236;15.432;2023-04-03T04:43:14;99317.81;;;13.25
64296;BMP280;51082;38.236;15.432;2023-04-03T04:44:17;99317.00;;;13.24
64296;BMP280;51082;38.236;15.432;2023-04-03T04:45:19;99314.41;;;13.24
64296;BMP280;51082;38.236;15.432;2023-04-03T04:46:22;99314.66;;;13.23
64296;BMP280;51082;38.236;15.432;2023-04-03T04:47:25;99309.41;;;13.23
64296;BMP280;51082;38.236;15.432;2023-04-03T04:48:29;99314.16;;;13.26
64296;BMP280;51082;38.236;15.432;2023-04-03T04:49:32;99315.25;;;13.30
64296;BMP280;51082;38.236;15.432;2023-04-03T04:50:33;99318.16;;;13.33
64296;BMP280;51082;38.236;15.432;2023-04-03T04:51:36;99323.38;;;13.33
64296;BMP280;51082;38.236;15.432;2023-04-03T04:52:38;99312.69;;;13.35
64296;BMP280;51082;38.236;15.432;2023-04-03T04:53:41;99316.53;;;13.27
64296;BMP280;51082;38.236;15.432;2023-04-03T04:54:48;99319.72;;;13.12
64296;BMP280;51082;38.236;15.432;2023-04-03T04:55:56;99318.97;;;13.17
64296;BMP280;51082;38.236;15.432;2023-04-03T04:56:58;99319.56;;;13.19
64296;BMP280;51082;38.236;15.432;2023-04-03T04:58:01;99315.13;;;13.20
64296;BMP280;51082;38.236;15.432;2023-04-03T04:59:03;99315.66;;;13.22
64296;BMP280;51082;38.236;15.432;2023-04-03T05:00:07;99306.56;;;13.24
64296;BMP280;51082;38.236;15.432;2023-04-03T05:01:10;99317.31;;;13.28
64296;BMP280;51082;38.236;15.432;2023-04-03T05:02:12;99316.84;;;13.31
64296;BMP280;51082;38.236;15.432;2023-04-03T05:03:14;99321.50;;;13.29
64296;BMP280;51082;38.236;15.432;2023-04-03T05:04:17;99330.31;;;13.23
64296;BMP280;51082;38.236;15.432;2023-04-03T05:05:19;99328.09;;;13.14
64296;BMP280;51082;38.236;15.432;2023-04-03T05:06:22;99325.56;;;13.20
64296;BMP280;51082;38.236;15.432;2023-04-03T05:07:24;99333.41;;;13.20
64296;BMP280;51082;38.236;15.432;2023-04-03T05:08:28;99337.28;;;13.17
64296;BMP280;51082;38.236;15.432;2023-04-03T05:09:29;99320.03;;;13.16
64296;BMP280;51082;38.236;15.432;2023-04-03T05:10:34;99324.00;;;13.18
64296;BMP280;51082;38.236;15.432;2023-04-03T05:11:45;99329.84;;;13.26
64296;BMP280;51082;38.236;15.432;2023-04-03T05:12:59;99327.41;;;13.19
64296;BMP280;51082;38.236;15.432;2023-04-03T05:14:04;99329.13;;;13.13
64296;BMP280;51082;38.236;15.432;2023-04-03T05:15:08;99318.13;;;13.11
64296;BMP280;51082;38.236;15.432;2023-04-03T05:16:11;99319.44;;;12.92
64296;BMP280;51082;38.236;15.432;2023-04-03T05:17:15;99315.84;;;12.98
64296;BMP280;51082;38.236;15.432;2023-04-03T05:18:18;99314.91;;;12.87
64296;BMP280;51082;38.236;15.432;2023-04-03T05:19:27;99313.25;;;12.98
64296;BMP280;51082;38.236;15.432;2023-04-03T05:20:31;99309.13;;;13.02
64296;BMP280;51082;38.236;15.432;2023-04-03T05:21:33;99302.38;;;13.06
64296;BMP280;51082;38.236;15.432;2023-04-03T05:22:36;99321.38;;;12.85
64296;BMP280;51082;38.236;15.432;2023-04-03T05:23:39;99317.66;;;12.81
64296;BMP280;51082;38.236;15.432;2023-04-03T05:24:41;99308.66;;;12.88
64296;BMP280;51082;38.236;15.432;2023-04-03T05:25:45;99314.19;;;12.92
64296;BMP280;51082;38.236;15.432;2023-04-03T05:26:48;99314.09;;;12.87
64296;BMP280;51082;38.236;15.432;2023-04-03T05:27:53;99309.50;;;12.94
64296;BMP280;51082;38.236;15.432;2023-04-03T05:28:56;99309.50;;;12.94
64296;BMP280;51082;38.236;15.432;2023-04-03T05:29:58;99316.09;;;12.97
64296;BMP280;51082;38.236;15.432;2023-04-03T05:31:03;99307.53;;;13.01
64296;BMP280;51082;38.236;15.432;2023-04-03T05:32:04;99319.09;;;13.05
64296;BMP280;51082;38.236;15.432;2023-04-03T05:33:07;99317.53;;;13.04
64296;BMP280;51082;38.236;15.432;2023-04-03T05:34:09;99314.81;;;12.99
64296;BMP280;51082;38.236;15.432;2023-04-03T05:35:12;99316.16;;;13.02
64296;BMP280;51082;38.236;15.432;2023-04-03T05:36:14;99320.34;;;13.03
64296;BMP280;51082;38.236;15.432;2023-04-03T05:37:16;99315.84;;;12.98
64296;BMP280;51082;38.236;15.432;2023-04-03T05:38:18;99320.53;;;12.96
64296;BMP280;51082;38.236;15.432;2023-04-03T05:39:21;99324.22;;;13.00
64296;BMP280;51082;38.236;15.432;2023-04-03T05:40:24;99323.06;;;12.91
64296;BMP280;51082;38.236;15.432;2023-04-03T05:41:28;99318.63;;;12.92
64296;BMP280;51082;38.236;15.432;2023-04-03T05:42:30;99317.59;;;12.93
64296;BMP280;51082;38.236;15.432;2023-04-03T05:43:35;99308.97;;;12.92
64296;BMP280;51082;38.236;15.432;2023-04-03T05:44:38;99314.03;;;12.99
64296;BMP280;51082;38.236;15.432;2023-04-03T05:45:42;99317.72;;;13.03
64296;BMP280;51082;38.236;15.432;2023-04-03T05:46:44;99319.72;;;12.96
64296;BMP280;51082;38.236;15.432;2023-04-03T05:47:47;99311.00;;;12.90
64296;BMP280;51082;38.236;15.432;2023-04-03T05:48:48;99318.47;;;12.98
64296;BMP280;51082;38.236;15.432;2023-04-03T05:49:52;99320.84;;;13.00
64296;BMP280;51082;38.236;15.432;2023-04-03T05:50:53;99314.34;;;13.02
64296;BMP280;51082;38.236;15.432;2023-04-03T05:51:56;99319.50;;;12.97
64296;BMP280;51082;38.236;15.432;2023-04-03T05:52:59;99316.94;;;13.02
64296;BMP280;51082;38.236;15.432;2023-04-03T05:54:08;99319.97;;;13.11
64296;BMP280;51082;38.236;15.432;2023-04-03T05:55:11;99321.53;;;13.12
64296;BMP280;51082;38.236;15.432;2023-04-03T05:56:14;99317.66;;;13.14
64296;BMP280;51082;38.236;15.432;2023-04-03T05:57:17;99320.81;;;13.16
64296;BMP280;51082;38.236;15.432;2023-04-03T05:58:21;99333.31;;;13.14
64296;BMP280;51082;38.236;15.432;2023-04-03T05:59:22;99326.03;;;13.16
64296;BMP280;51082;38.236;15.432;2023-04-03T06:00:25;99332.88;;;13.17
64296;BMP280;51082;38.236;15.432;2023-04-03T06:01:31;99331.25;;;13.16
64296;BMP280;51082;38.236;15.432;2023-04-03T06:02:35;99335.22;;;13.19